sensor_id;sensor_type;location;lat;lon;timestamp;P1;durP1;ratioP1;P2;durP2;ratioP2
60502;SDS011;51448;51.660;5.824;2023-07-24T00:00:38;9.98;;;5.60;;
60502;SDS011;51448;51.660;5.824;2023-07-24T00:03:07;9.23;;;6.32;;
60502;SDS011;51448;51.660;5.824;2023-07-24T00:05:35;9.60;;;6.15;;
60502;SDS011;51448;51.660;5.824;2023-07-24T00:08:03;9.63;;;6.53;;
60502;SDS011;51448;51.660;5.824;2023-07-24T00:10:30;8.73;;;6.68;;
60502;SDS011;51448;51.660;5.824;2023-07-24T00:12:58;9.88;;;6.90;;
60502;SDS011;51448;51.660;5.824;2023-07-24T00:15:26;9.52;;;6.90;;
60502;SDS011;51448;51.660;5.824;2023-07-24T00:17:53;9.18;;;6.78;;
60502;SDS011;51448;51.660;5.824;2023-07-24T00:20:22;11.85;;;8.60;;
60502;SDS011;51448;51.660;5.824;2023-07-24T00:22:51;9.15;;;5.57;;
60502;SDS011;51448;51.660;5.824;2023-07-24T00:25:19;9.40;;;6.13;;
60502;SDS011;51448;51.660;5.824;2023-07-24T00:27:46;9.98;;;5.45;;
60502;SDS011;51448;51.660;5.824;2023-07-24T00:30:14;8.27;;;5.22;;
60502;SDS011;51448;51.660;5.824;2023-07-24T00:32:43;7.55;;;4.80;;
60502;SDS011;51448;51.660;5.824;2023-07-24T00:35:10;8.77;;;4.75;;
60502;SDS011;51448;51.660;5.824;2023-07-24T00:37:38;8.10;;;5.47;;
60502;SDS011;51448;51.660;5.824;2023-07-24T00:40:07;10.13;;;7.05;;
60502;SDS011;51448;51.660;5.824;2023-07-24T00:42:35;10.00;;;5.70;;
60502;SDS011;51448;51.660;5.824;2023-07-24T00:45:03;8.13;;;5.30;;
60502;SDS011;51448;51.660;5.824;2023-07-24T00:47:32;6.53;;;4.10;;
60502;SDS011;51448;51.660;5.824;2023-07-24T00:49:59;5.80;;;3.30;;
60502;SDS011;51448;51.660;5.824;2023-07-24T00:52:27;5.22;;;2.65;;
60502;SDS011;51448;51.660;5.824;2023-07-24T00:54:55;4.40;;;2.42;;
60502;SDS011;51448;51.660;5.824;2023-07-24T00:57:23;6.45;;;3.08;;
60502;SDS011;51448;51.660;5.824;2023-07-24T00:59:51;5.72;;;2.80;;
60502;SDS011;51448;51.660;5.824;2023-07-24T01:02:19;6.03;;;2.75;;
60502;SDS011;51448;51.660;5.824;2023-07-24T01:04:47;5.35;;;2.72;;
60502;SDS011;51448;51.660;5.824;2023-07-24T01:07:16;4.68;;;2.53;;
60502;SDS011;51448;51.660;5.824;2023-07-24T01:09:43;5.53;;;2.38;;
60502;SDS011;51448;51.660;5.824;2023-07-24T01:15:30;5.65;;;2.65;;
60502;SDS011;51448;51.660;5.824;2023-07-24T01:18:04;6.75;;;2.78;;
60502;SDS011;51448;51.660;5.824;2023-07-24T01:20:37;5.70;;;2.97;;
60502;SDS011;51448;51.660;5.824;2023-07-24T01:26:25;5.53;;;3.22;;
60502;SDS011;51448;51.660;5.824;2023-07-24T01:28:53;6.45;;;2.95;;
60502;SDS011;51448;51.660;5.824;2023-07-24T01:31:21;6.55;;;3.10;;
60502;SDS011;51448;51.660;5.824;2023-07-24T01:33:50;5.45;;;3.05;;
60502;SDS011;51448;51.660;5.824;2023-07-24T01:36:18;6.75;;;3.63;;
60502;SDS011;51448;51.660;5.824;2023-07-24T01:38:46;6.93;;;3.70;;
60502;SDS011;51448;51.660;5.824;2023-07-24T01:41:16;6.57;;;4.00;;
60502;SDS011;51448;51.660;5.824;2023-07-24T01:43:44;7.28;;;4.18;;
60502;SDS011;51448;51.660;5.824;2023-07-24T01:46:12;6.22;;;3.90;;
60502;SDS011;51448;51.660;5.824;2023-07-24T01:48:39;7.45;;;4.13;;
60502;SDS011;51448;51.660;5.824;2023-07-24T01:51:07;7.10;;;4.07;;
60502;SDS011;51448;51.660;5.824;2023-07-24T01:53:34;8.23;;;4.25;;
60502;SDS011;51448;51.660;5.824;2023-07-24T01:56:02;7.53;;;4.40;;
60502;SDS011;51448;51.660;5.824;2023-07-24T01:58:30;7.72;;;4.05;;
60502;SDS011;51448;51.660;5.824;2023-07-24T02:00:58;8.93;;;4.15;;
60502;SDS011;51448;51.660;5.824;2023-07-24T02:03:26;8.68;;;3.97;;
60502;SDS011;51448;51.660;5.824;2023-07-24T02:05:54;7.15;;;4.38;;
60502;SDS011;51448;51.660;5.824;2023-07-24T02:08:22;6.65;;;4.07;;
60502;SDS011;51448;51.660;5.824;2023-07-24T02:10:49;6.97;;;3.95;;
60502;SDS011;51448;51.660;5.824;2023-07-24T02:13:18;8.20;;;4.03;;
60502;SDS011;51448;51.660;5.824;2023-07-24T02:15:48;7.90;;;4.22;;
60502;SDS011;51448;51.660;5.824;2023-07-24T02:18:17;8.23;;;4.97;;
60502;SDS011;51448;51.660;5.824;2023-07-24T02:20:49;9.73;;;5.63;;
60502;SDS011;51448;51.660;5.824;2023-07-24T02:23:17;9.60;;;5.68;;
60502;SDS011;51448;51.660;5.824;2023-07-24T02:25:45;9.40;;;6.40;;
60502;SDS011;51448;51.660;5.824;2023-07-24T02:28:13;11.57;;;6.60;;
60502;SDS011;51448;51.660;5.824;2023-07-24T02:30:40;9.80;;;6.25;;
60502;SDS011;51448;51.660;5.824;2023-07-24T02:33:08;8.05;;;5.05;;
60502;SDS011;51448;51.660;5.824;2023-07-24T02:35:39;6.70;;;4.43;;
60502;SDS011;51448;51.660;5.824;2023-07-24T02:38:10;6.80;;;3.78;;
60502;SDS011;51448;51.660;5.824;2023-07-24T02:40:40;6.60;;;3.58;;
60502;SDS011;51448;51.660;5.824;2023-07-24T02:43:08;6.80;;;3.63;;
60502;SDS011;51448;51.660;5.824;2023-07-24T02:45:39;5.97;;;3.65;;
60502;SDS011;51448;51.660;5.824;2023-07-24T02:48:08;5.70;;;3.35;;
60502;SDS011;51448;51.660;5.824;2023-07-24T02:50:35;5.93;;;3.40;;
60502;SDS011;51448;51.660;5.824;2023-07-24T02:53:03;6.93;;;3.80;;
60502;SDS011;51448;51.660;5.824;2023-07-24T02:55:31;5.95;;;3.15;;
60502;SDS011;51448;51.660;5.824;2023-07-24T02:57:59;7.80;;;3.78;;
60502;SDS011;51448;51.660;5.824;2023-07-24T03:00:26;5.68;;;3.38;;
60502;SDS011;51448;51.660;5.824;2023-07-24T03:02:54;6.45;;;3.38;;
60502;SDS011;51448;51.660;5.824;2023-07-24T03:05:22;6.50;;;3.72;;
60502;SDS011;51448;51.660;5.824;2023-07-24T03:07:49;7.45;;;4.28;;
60502;SDS011;51448;51.660;5.824;2023-07-24T03:10:17;8.43;;;4.50;;
60502;SDS011;51448;51.660;5.824;2023-07-24T03:12:45;8.07;;;4.78;;
60502;SDS011;51448;51.660;5.824;2023-07-24T03:15:13;9.73;;;5.13;;
60502;SDS011;51448;51.660;5.824;2023-07-24T03:17:41;8.50;;;4.80;;
60502;SDS011;51448;51.660;5.824;2023-07-24T03:20:15;7.38;;;4.57;;
60502;SDS011;51448;51.660;5.824;2023-07-24T03:22:45;5.80;;;3.28;;
60502;SDS011;51448;51.660;5.824;2023-07-24T03:25:13;5.80;;;2.70;;
60502;SDS011;51448;51.660;5.824;2023-07-24T03:27:40;5.00;;;2.85;;
60502;SDS011;51448;51.660;5.824;2023-07-24T03:30:08;5.20;;;2.72;;
60502;SDS011;51448;51.660;5.824;2023-07-24T03:32:36;5.10;;;2.70;;
60502;SDS011;51448;51.660;5.824;2023-07-24T03:35:05;4.45;;;2.28;;
60502;SDS011;51448;51.660;5.824;2023-07-24T03:37:34;6.45;;;2.90;;
60502;SDS011;51448;51.660;5.824;2023-07-24T03:40:04;5.38;;;2.40;;
60502;SDS011;51448;51.660;5.824;2023-07-24T03:42:32;5.50;;;2.70;;
60502;SDS011;51448;51.660;5.824;2023-07-24T03:45:00;6.47;;;3.05;;
60502;SDS011;51448;51.660;5.824;2023-07-24T03:47:28;5.28;;;3.10;;
60502;SDS011;51448;51.660;5.824;2023-07-24T03:49:56;5.88;;;3.15;;
60502;SDS011;51448;51.660;5.824;2023-07-24T03:52:24;5.18;;;2.70;;
60502;SDS011;51448;51.660;5.824;2023-07-24T03:54:51;5.97;;;3.17;;
60502;SDS011;51448;51.660;5.824;2023-07-24T03:57:19;6.25;;;3.33;;
60502;SDS011;51448;51.660;5.824;2023-07-24T03:59:47;6.22;;;3.13;;
60502;SDS011;51448;51.660;5.824;2023-07-24T04:02:15;6.18;;;3.17;;
60502;SDS011;51448;51.660;5.824;2023-07-24T04:04:43;5.53;;;3.30;;
60502;SDS011;51448;51.660;5.824;2023-07-24T04:07:10;6.03;;;3.30;;
60502;SDS011;51448;51.660;5.824;2023-07-24T04:09:38;5.38;;;3.00;;
60502;SDS011;51448;51.660;5.824;2023-07-24T04:12:05;9.13;;;3.03;;
60502;SDS011;51448;51.660;5.824;2023-07-24T04:14:33;5.60;;;2.60;;
60502;SDS011;51448;51.660;5.824;2023-07-24T04:17:01;4.60;;;2.20;;
60502;SDS011;51448;51.660;5.824;2023-07-24T04:19:28;5.13;;;2.25;;
60502;SDS011;51448;51.660;5.824;2023-07-24T04:21:56;4.75;;;2.75;;
60502;SDS011;51448;51.660;5.824;2023-07-24T04:24:23;6.03;;;3.03;;
60502;SDS011;51448;51.660;5.824;2023-07-24T04:26:51;4.97;;;2.50;;
60502;SDS011;51448;51.660;5.824;2023-07-24T04:29:19;5.32;;;2.60;;
60502;SDS011;51448;51.660;5.824;2023-07-24T04:31:50;5.90;;;2.58;;
60502;SDS011;51448;51.660;5.824;2023-07-24T04:34:18;4.55;;;2.50;;
60502;SDS011;51448;51.660;5.824;2023-07-24T04:36:46;5.00;;;2.70;;
60502;SDS011;51448;51.660;5.824;2023-07-24T04:39:14;6.03;;;3.03;;
60502;SDS011;51448;51.660;5.824;2023-07-24T04:41:41;5.82;;;3.17;;
60502;SDS011;51448;51.660;5.824;2023-07-24T04:44:09;6.32;;;3.10;;
60502;SDS011;51448;51.660;5.824;2023-07-24T04:46:36;6.38;;;3.30;;
60502;SDS011;51448;51.660;5.824;2023-07-24T04:49:04;5.93;;;3.30;;
60502;SDS011;51448;51.660;5.824;2023-07-24T04:51:31;6.35;;;3.53;;
60502;SDS011;51448;51.660;5.824;2023-07-24T04:54:02;5.47;;;3.20;;
60502;SDS011;51448;51.660;5.824;2023-07-24T04:56:30;6.53;;;3.50;;
60502;SDS011;51448;51.660;5.824;2023-07-24T04:58:58;5.45;;;3.05;;
60502;SDS011;51448;51.660;5.824;2023-07-24T05:01:26;5.45;;;3.50;;
60502;SDS011;51448;51.660;5.824;2023-07-24T05:03:53;7.15;;;3.53;;
60502;SDS011;51448;51.660;5.824;2023-07-24T05:06:21;5.63;;;3.25;;
60502;SDS011;51448;51.660;5.824;2023-07-24T05:08:49;6.05;;;3.50;;
60502;SDS011;51448;51.660;5.824;2023-07-24T05:11:17;6.30;;;3.92;;
60502;SDS011;51448;51.660;5.824;2023-07-24T05:13:45;6.40;;;3.70;;
60502;SDS011;51448;51.660;5.824;2023-07-24T05:16:13;6.22;;;4.00;;
60502;SDS011;51448;51.660;5.824;2023-07-24T05:18:41;6.47;;;4.10;;
60502;SDS011;51448;51.660;5.824;2023-07-24T05:21:08;7.05;;;4.20;;
60502;SDS011;51448;51.660;5.824;2023-07-24T05:23:36;7.00;;;4.35;;
60502;SDS011;51448;51.660;5.824;2023-07-24T05:26:04;7.88;;;4.65;;
60502;SDS011;51448;51.660;5.824;2023-07-24T05:28:31;6.45;;;4.22;;
60502;SDS011;51448;51.660;5.824;2023-07-24T05:31:03;7.13;;;4.53;;
60502;SDS011;51448;51.660;5.824;2023-07-24T05:36:00;6.35;;;3.85;;
60502;SDS011;51448;51.660;5.824;2023-07-24T05:38:30;7.53;;;4.85;;
60502;SDS011;51448;51.660;5.824;2023-07-24T05:40:58;5.60;;;3.88;;
60502;SDS011;51448;51.660;5.824;2023-07-24T05:43:29;6.88;;;4.47;;
60502;SDS011;51448;51.660;5.824;2023-07-24T05:45:58;7.85;;;4.78;;
60502;SDS011;51448;51.660;5.824;2023-07-24T05:48:26;7.63;;;4.35;;
60502;SDS011;51448;51.660;5.824;2023-07-24T05:50:54;6.50;;;4.22;;
60502;SDS011;51448;51.660;5.824;2023-07-24T05:53:22;6.18;;;3.78;;
60502;SDS011;51448;51.660;5.824;2023-07-24T05:55:58;5.97;;;3.97;;
60502;SDS011;51448;51.660;5.824;2023-07-24T05:58:28;7.85;;;4.38;;
60502;SDS011;51448;51.660;5.824;2023-07-24T06:00:56;7.65;;;4.53;;
60502;SDS011;51448;51.660;5.824;2023-07-24T06:03:24;6.53;;;4.68;;
60502;SDS011;51448;51.660;5.824;2023-07-24T06:05:55;6.18;;;4.43;;
60502;SDS011;51448;51.660;5.824;2023-07-24T06:10:51;7.30;;;4.63;;
60502;SDS011;51448;51.660;5.824;2023-07-24T06:13:19;6.40;;;4.60;;
60502;SDS011;51448;51.660;5.824;2023-07-24T06:15:48;8.10;;;4.85;;
60502;SDS011;51448;51.660;5.824;2023-07-24T06:18:18;8.68;;;5.07;;
60502;SDS011;51448;51.660;5.824;2023-07-24T06:20:47;7.85;;;4.82;;
60502;SDS011;51448;51.660;5.824;2023-07-24T06:23:18;8.88;;;4.80;;
60502;SDS011;51448;51.660;5.824;2023-07-24T06:25:46;7.13;;;5.25;;
60502;SDS011;51448;51.660;5.824;2023-07-24T06:28:14;7.80;;;5.20;;
60502;SDS011;51448;51.660;5.824;2023-07-24T06:30:41;8.63;;;5.95;;
60502;SDS011;51448;51.660;5.824;2023-07-24T06:33:09;9.35;;;6.38;;
60502;SDS011;51448;51.660;5.824;2023-07-24T06:35:37;8.13;;;6.07;;
60502;SDS011;51448;51.660;5.824;2023-07-24T06:38:04;8.20;;;6.28;;
60502;SDS011;51448;51.660;5.824;2023-07-24T06:40:32;8.63;;;6.45;;
60502;SDS011;51448;51.660;5.824;2023-07-24T06:43:00;9.00;;;6.35;;
60502;SDS011;51448;51.660;5.824;2023-07-24T06:45:27;9.80;;;7.25;;
60502;SDS011;51448;51.660;5.824;2023-07-24T06:47:55;10.10;;;7.53;;
60502;SDS011;51448;51.660;5.824;2023-07-24T06:50:22;10.05;;;7.97;;
60502;SDS011;51448;51.660;5.824;2023-07-24T06:52:50;10.95;;;7.97;;
60502;SDS011;51448;51.660;5.824;2023-07-24T06:55:18;9.48;;;7.70;;
60502;SDS011;51448;51.660;5.824;2023-07-24T06:57:45;9.02;;;6.50;;
60502;SDS011;51448;51.660;5.824;2023-07-24T07:00:13;9.30;;;6.88;;
60502;SDS011;51448;51.660;5.824;2023-07-24T07:02:41;8.65;;;6.30;;
60502;SDS011;51448;51.660;5.824;2023-07-24T07:05:09;9.73;;;7.07;;
60502;SDS011;51448;51.660;5.824;2023-07-24T07:07:36;10.40;;;6.65;;
60502;SDS011;51448;51.660;5.824;2023-07-24T07:10:04;9.57;;;6.20;;
60502;SDS011;51448;51.660;5.824;2023-07-24T07:12:32;9.57;;;7.43;;
60502;SDS011;51448;51.660;5.824;2023-07-24T07:15:00;8.75;;;7.07;;
60502;SDS011;51448;51.660;5.824;2023-07-24T07:17:27;9.32;;;7.35;;
60502;SDS011;51448;51.660;5.824;2023-07-24T07:19:55;12.70;;;8.38;;
60502;SDS011;51448;51.660;5.824;2023-07-24T07:22:24;12.65;;;8.68;;
60502;SDS011;51448;51.660;5.824;2023-07-24T07:24:52;11.50;;;8.00;;
60502;SDS011;51448;51.660;5.824;2023-07-24T07:27:19;13.70;;;9.15;;
60502;SDS011;51448;51.660;5.824;2023-07-24T07:29:47;11.90;;;9.00;;
60502;SDS011;51448;51.660;5.824;2023-07-24T07:32:15;11.27;;;8.85;;
60502;SDS011;51448;51.660;5.824;2023-07-24T07:34:42;12.75;;;8.65;;
60502;SDS011;51448;51.660;5.824;2023-07-24T07:37:10;11.35;;;8.95;;
60502;SDS011;51448;51.660;5.824;2023-07-24T07:39:37;11.90;;;9.25;;
60502;SDS011;51448;51.660;5.824;2023-07-24T07:42:05;13.75;;;10.30;;
60502;SDS011;51448;51.660;5.824;2023-07-24T07:44:44;14.20;;;10.25;;
60502;SDS011;51448;51.660;5.824;2023-07-24T07:47:13;13.43;;;9.88;;
60502;SDS011;51448;51.660;5.824;2023-07-24T07:49:40;15.18;;;10.75;;
60502;SDS011;51448;51.660;5.824;2023-07-24T07:52:09;13.10;;;10.45;;
60502;SDS011;51448;51.660;5.824;2023-07-24T07:54:36;13.63;;;10.82;;
60502;SDS011;51448;51.660;5.824;2023-07-24T07:57:04;13.65;;;10.52;;
60502;SDS011;51448;51.660;5.824;2023-07-24T07:59:32;12.77;;;9.90;;
60502;SDS011;51448;51.660;5.824;2023-07-24T08:02:00;12.40;;;9.43;;
60502;SDS011;51448;51.660;5.824;2023-07-24T08:04:28;13.63;;;10.23;;
60502;SDS011;51448;51.660;5.824;2023-07-24T08:06:56;10.77;;;8.48;;
60502;SDS011;51448;51.660;5.824;2023-07-24T08:09:23;13.77;;;9.48;;
60502;SDS011;51448;51.660;5.824;2023-07-24T08:11:51;11.35;;;8.82;;
60502;SDS011;51448;51.660;5.824;2023-07-24T08:14:19;9.95;;;8.18;;
60502;SDS011;51448;51.660;5.824;2023-07-24T08:16:50;8.80;;;6.07;;
60502;SDS011;51448;51.660;5.824;2023-07-24T08:19:18;8.50;;;5.07;;
60502;SDS011;51448;51.660;5.824;2023-07-24T08:21:46;7.68;;;5.47;;
60502;SDS011;51448;51.660;5.824;2023-07-24T08:24:14;7.85;;;5.40;;
60502;SDS011;51448;51.660;5.824;2023-07-24T08:26:42;7.57;;;5.72;;
60502;SDS011;51448;51.660;5.824;2023-07-24T08:29:09;9.20;;;5.93;;
60502;SDS011;51448;51.660;5.824;2023-07-24T08:31:37;7.22;;;4.70;;
60502;SDS011;51448;51.660;5.824;2023-07-24T08:34:04;6.43;;;4.13;;
60502;SDS011;51448;51.660;5.824;2023-07-24T08:36:32;6.32;;;3.85;;
60502;SDS011;51448;51.660;5.824;2023-07-24T08:39:00;7.43;;;4.07;;
60502;SDS011;51448;51.660;5.824;2023-07-24T08:41:27;6.10;;;3.40;;
60502;SDS011;51448;51.660;5.824;2023-07-24T08:43:55;5.15;;;3.13;;
60502;SDS011;51448;51.660;5.824;2023-07-24T08:46:23;5.63;;;3.50;;
60502;SDS011;51448;51.660;5.824;2023-07-24T08:48:51;6.38;;;3.85;;
60502;SDS011;51448;51.660;5.824;2023-07-24T08:51:21;7.72;;;4.20;;
60502;SDS011;51448;51.660;5.824;2023-07-24T08:53:51;6.22;;;3.65;;
60502;SDS011;51448;51.660;5.824;2023-07-24T08:56:19;6.45;;;3.83;;
60502;SDS011;51448;51.660;5.824;2023-07-24T08:58:47;6.55;;;4.32;;
60502;SDS011;51448;51.660;5.824;2023-07-24T09:01:15;7.47;;;4.18;;
60502;SDS011;51448;51.660;5.824;2023-07-24T09:03:43;6.57;;;4.40;;
60502;SDS011;51448;51.660;5.824;2023-07-24T09:06:11;6.93;;;4.28;;
60502;SDS011;51448;51.660;5.824;2023-07-24T09:08:39;7.38;;;4.90;;
60502;SDS011;51448;51.660;5.824;2023-07-24T09:11:10;8.00;;;5.53;;
60502;SDS011;51448;51.660;5.824;2023-07-24T09:13:41;7.45;;;5.00;;
60502;SDS011;51448;51.660;5.824;2023-07-24T09:16:26;8.32;;;5.38;;
60502;SDS011;51448;51.660;5.824;2023-07-24T09:18:54;9.07;;;6.03;;
60502;SDS011;51448;51.660;5.824;2023-07-24T09:21:37;7.93;;;6.32;;
60502;SDS011;51448;51.660;5.824;2023-07-24T09:24:11;8.30;;;5.80;;
60502;SDS011;51448;51.660;5.824;2023-07-24T09:26:51;8.57;;;6.25;;
60502;SDS011;51448;51.660;5.824;2023-07-24T09:29:31;8.32;;;6.07;;
60502;SDS011;51448;51.660;5.824;2023-07-24T09:32:00;8.23;;;6.28;;
60502;SDS011;51448;51.660;5.824;2023-07-24T09:34:28;8.93;;;7.32;;
60502;SDS011;51448;51.660;5.824;2023-07-24T09:36:56;8.40;;;6.75;;
60502;SDS011;51448;51.660;5.824;2023-07-24T09:39:24;8.50;;;6.35;;
60502;SDS011;51448;51.660;5.824;2023-07-24T09:42:03;7.78;;;6.07;;
60502;SDS011;51448;51.660;5.824;2023-07-24T09:44:32;8.77;;;6.32;;
60502;SDS011;51448;51.660;5.824;2023-07-24T09:47:00;8.40;;;6.18;;
60502;SDS011;51448;51.660;5.824;2023-07-24T09:49:49;6.97;;;5.90;;
60502;SDS011;51448;51.660;5.824;2023-07-24T09:52:19;9.00;;;6.57;;
60502;SDS011;51448;51.660;5.824;2023-07-24T09:54:51;8.30;;;5.60;;
60502;SDS011;51448;51.660;5.824;2023-07-24T09:57:32;7.88;;;4.93;;
60502;SDS011;51448;51.660;5.824;2023-07-24T10:00:01;8.65;;;5.63;;
60502;SDS011;51448;51.660;5.824;2023-07-24T10:02:30;7.80;;;5.82;;
60502;SDS011;51448;51.660;5.824;2023-07-24T10:04:59;8.20;;;5.78;;
60502;SDS011;51448;51.660;5.824;2023-07-24T10:07:28;7.50;;;5.63;;
60502;SDS011;51448;51.660;5.824;2023-07-24T10:09:58;8.07;;;5.28;;
60502;SDS011;51448;51.660;5.824;2023-07-24T10:12:26;8.10;;;4.75;;
60502;SDS011;51448;51.660;5.824;2023-07-24T10:14:55;7.45;;;5.07;;
60502;SDS011;51448;51.660;5.824;2023-07-24T10:17:33;9.30;;;5.90;;
60502;SDS011;51448;51.660;5.824;2023-07-24T10:20:05;8.88;;;5.80;;
60502;SDS011;51448;51.660;5.824;2023-07-24T10:22:36;9.23;;;5.97;;
60502;SDS011;51448;51.660;5.824;2023-07-24T10:25:10;7.43;;;5.28;;
60502;SDS011;51448;51.660;5.824;2023-07-24T10:27:42;6.60;;;4.30;;
60502;SDS011;51448;51.660;5.824;2023-07-24T10:30:14;6.55;;;4.18;;
60502;SDS011;51448;51.660;5.824;2023-07-24T10:33:18;6.38;;;4.15;;
60502;SDS011;51448;51.660;5.824;2023-07-24T10:35:54;5.75;;;3.75;;
60502;SDS011;51448;51.660;5.824;2023-07-24T10:38:36;5.90;;;3.90;;
60502;SDS011;51448;51.660;5.824;2023-07-24T10:41:07;7.15;;;3.70;;
60502;SDS011;51448;51.660;5.824;2023-07-24T10:43:47;6.70;;;4.10;;
60502;SDS011;51448;51.660;5.824;2023-07-24T10:46:20;6.68;;;4.15;;
60502;SDS011;51448;51.660;5.824;2023-07-24T10:48:49;7.05;;;4.70;;
60502;SDS011;51448;51.660;5.824;2023-07-24T10:51:19;6.78;;;4.50;;
60502;SDS011;51448;51.660;5.824;2023-07-24T10:53:48;7.95;;;5.15;;
60502;SDS011;51448;51.660;5.824;2023-07-24T10:56:16;8.05;;;4.72;;
60502;SDS011;51448;51.660;5.824;2023-07-24T10:58:44;7.50;;;5.25;;
60502;SDS011;51448;51.660;5.824;2023-07-24T11:01:12;7.05;;;4.97;;
60502;SDS011;51448;51.660;5.824;2023-07-24T11:03:41;8.43;;;4.90;;
60502;SDS011;51448;51.660;5.824;2023-07-24T11:06:14;7.22;;;5.30;;
60502;SDS011;51448;51.660;5.824;2023-07-24T11:08:51;8.75;;;5.22;;
60502;SDS011;51448;51.660;5.824;2023-07-24T11:11:20;8.52;;;4.97;;
60502;SDS011;51448;51.660;5.824;2023-07-24T11:13:49;8.45;;;4.38;;
60502;SDS011;51448;51.660;5.824;2023-07-24T11:16:17;6.55;;;3.85;;
60502;SDS011;51448;51.660;5.824;2023-07-24T11:18:47;6.00;;;3.67;;
60502;SDS011;51448;51.660;5.824;2023-07-24T11:21:24;6.05;;;3.97;;
60502;SDS011;51448;51.660;5.824;2023-07-24T11:23:52;5.60;;;3.47;;
60502;SDS011;51448;51.660;5.824;2023-07-24T11:26:22;6.55;;;4.25;;
60502;SDS011;51448;51.660;5.824;2023-07-24T11:28:52;6.13;;;3.70;;
60502;SDS011;51448;51.660;5.824;2023-07-24T11:31:21;6.65;;;4.25;;
60502;SDS011;51448;51.660;5.824;2023-07-24T11:33:49;7.72;;;4.20;;
60502;SDS011;51448;51.660;5.824;2023-07-24T11:36:19;6.25;;;4.35;;
60502;SDS011;51448;51.660;5.824;2023-07-24T11:38:48;8.07;;;4.60;;
60502;SDS011;51448;51.660;5.824;2023-07-24T11:41:16;6.80;;;4.60;;
60502;SDS011;51448;51.660;5.824;2023-07-24T11:43:45;6.85;;;4.97;;
60502;SDS011;51448;51.660;5.824;2023-07-24T11:46:25;7.15;;;5.13;;
60502;SDS011;51448;51.660;5.824;2023-07-24T11:48:56;7.10;;;4.35;;
60502;SDS011;51448;51.660;5.824;2023-07-24T11:51:25;8.05;;;4.95;;
60502;SDS011;51448;51.660;5.824;2023-07-24T11:54:05;7.55;;;4.18;;
60502;SDS011;51448;51.660;5.824;2023-07-24T11:56:35;5.85;;;3.90;;
60502;SDS011;51448;51.660;5.824;2023-07-24T11:59:10;6.70;;;4.22;;
60502;SDS011;51448;51.660;5.824;2023-07-24T12:01:50;6.78;;;4.55;;
60502;SDS011;51448;51.660;5.824;2023-07-24T12:04:18;8.07;;;4.45;;
60502;SDS011;51448;51.660;5.824;2023-07-24T12:06:48;7.07;;;5.18;;
60502;SDS011;51448;51.660;5.824;2023-07-24T12:09:16;6.93;;;4.63;;
60502;SDS011;51448;51.660;5.824;2023-07-24T12:11:44;6.85;;;4.93;;
60502;SDS011;51448;51.660;5.824;2023-07-24T12:14:13;7.30;;;5.20;;
60502;SDS011;51448;51.660;5.824;2023-07-24T12:16:42;7.07;;;4.90;;
60502;SDS011;51448;51.660;5.824;2023-07-24T12:19:10;7.50;;;5.18;;
60502;SDS011;51448;51.660;5.824;2023-07-24T12:21:38;7.30;;;4.65;;
60502;SDS011;51448;51.660;5.824;2023-07-24T12:24:05;8.13;;;5.20;;
60502;SDS011;51448;51.660;5.824;2023-07-24T12:26:33;8.70;;;6.18;;
60502;SDS011;51448;51.660;5.824;2023-07-24T12:29:01;8.05;;;5.95;;
60502;SDS011;51448;51.660;5.824;2023-07-24T12:31:28;8.00;;;5.80;;
60502;SDS011;51448;51.660;5.824;2023-07-24T12:33:57;7.72;;;5.57;;
60502;SDS011;51448;51.660;5.824;2023-07-24T12:36:25;8.68;;;5.80;;
60502;SDS011;51448;51.660;5.824;2023-07-24T12:38:53;7.72;;;4.60;;
60502;SDS011;51448;51.660;5.824;2023-07-24T12:41:21;8.88;;;5.65;;
60502;SDS011;51448;51.660;5.824;2023-07-24T12:43:49;8.20;;;5.65;;
60502;SDS011;51448;51.660;5.824;2023-07-24T12:46:16;7.95;;;5.78;;
60502;SDS011;51448;51.660;5.824;2023-07-24T12:48:44;8.80;;;5.88;;
60502;SDS011;51448;51.660;5.824;2023-07-24T12:51:11;8.77;;;6.25;;
60502;SDS011;51448;51.660;5.824;2023-07-24T12:53:39;6.80;;;5.30;;
60502;SDS011;51448;51.660;5.824;2023-07-24T12:56:22;7.72;;;5.82;;
60502;SDS011;51448;51.660;5.824;2023-07-24T12:58:50;7.32;;;5.75;;
60502;SDS011;51448;51.660;5.824;2023-07-24T13:01:18;8.88;;;5.60;;
60502;SDS011;51448;51.660;5.824;2023-07-24T13:03:45;9.07;;;5.43;;
60502;SDS011;51448;51.660;5.824;2023-07-24T13:06:13;7.47;;;5.03;;
60502;SDS011;51448;51.660;5.824;2023-07-24T13:08:41;7.88;;;4.90;;
60502;SDS011;51448;51.660;5.824;2023-07-24T13:11:08;8.57;;;5.35;;
60502;SDS011;51448;51.660;5.824;2023-07-24T13:13:36;7.78;;;5.20;;
60502;SDS011;51448;51.660;5.824;2023-07-24T13:16:03;7.13;;;5.13;;
60502;SDS011;51448;51.660;5.824;2023-07-24T13:18:31;9.32;;;6.97;;
60502;SDS011;51448;51.660;5.824;2023-07-24T13:20:59;9.35;;;7.10;;
60502;SDS011;51448;51.660;5.824;2023-07-24T13:23:26;9.95;;;6.88;;
60502;SDS011;51448;51.660;5.824;2023-07-24T13:25:54;8.50;;;6.53;;
60502;SDS011;51448;51.660;5.824;2023-07-24T13:28:22;10.18;;;6.70;;
60502;SDS011;51448;51.660;5.824;2023-07-24T13:30:49;11.02;;;8.35;;
60502;SDS011;51448;51.660;5.824;2023-07-24T13:33:17;9.75;;;7.70;;
60502;SDS011;51448;51.660;5.824;2023-07-24T13:35:46;8.75;;;7.55;;
60502;SDS011;51448;51.660;5.824;2023-07-24T13:38:16;9.57;;;7.95;;
60502;SDS011;51448;51.660;5.824;2023-07-24T13:40:47;10.65;;;9.27;;
60502;SDS011;51448;51.660;5.824;2023-07-24T13:43:14;11.23;;;9.02;;
60502;SDS011;51448;51.660;5.824;2023-07-24T13:45:43;11.45;;;7.57;;
60502;SDS011;51448;51.660;5.824;2023-07-24T13:48:11;9.10;;;6.82;;
60502;SDS011;51448;51.660;5.824;2023-07-24T13:50:39;7.80;;;6.63;;
60502;SDS011;51448;51.660;5.824;2023-07-24T13:53:07;9.18;;;7.15;;
60502;SDS011;51448;51.660;5.824;2023-07-24T13:55:35;9.68;;;8.05;;
60502;SDS011;51448;51.660;5.824;2023-07-24T13:58:02;9.23;;;7.53;;
60502;SDS011;51448;51.660;5.824;2023-07-24T14:00:30;9.05;;;7.53;;
60502;SDS011;51448;51.660;5.824;2023-07-24T14:02:58;10.88;;;8.15;;
60502;SDS011;51448;51.660;5.824;2023-07-24T14:05:25;8.82;;;7.30;;
60502;SDS011;51448;51.660;5.824;2023-07-24T14:07:53;9.98;;;8.02;;
60502;SDS011;51448;51.660;5.824;2023-07-24T14:10:21;9.60;;;8.00;;
60502;SDS011;51448;51.660;5.824;2023-07-24T14:12:48;9.80;;;8.30;;
60502;SDS011;51448;51.660;5.824;2023-07-24T14:15:16;11.18;;;8.77;;
60502;SDS011;51448;51.660;5.824;2023-07-24T14:17:43;11.10;;;8.20;;
60502;SDS011;51448;51.660;5.824;2023-07-24T14:20:11;11.20;;;8.18;;
60502;SDS011;51448;51.660;5.824;2023-07-24T14:22:39;10.52;;;6.03;;
60502;SDS011;51448;51.660;5.824;2023-07-24T14:25:07;8.88;;;5.82;;
60502;SDS011;51448;51.660;5.824;2023-07-24T14:27:35;9.50;;;6.20;;
60502;SDS011;51448;51.660;5.824;2023-07-24T14:30:02;9.40;;;5.70;;
60502;SDS011;51448;51.660;5.824;2023-07-24T14:32:31;10.15;;;6.78;;
60502;SDS011;51448;51.660;5.824;2023-07-24T14:34:58;10.07;;;6.55;;
60502;SDS011;51448;51.660;5.824;2023-07-24T14:37:26;7.45;;;5.57;;
60502;SDS011;51448;51.660;5.824;2023-07-24T14:39:53;10.68;;;6.38;;
60502;SDS011;51448;51.660;5.824;2023-07-24T14:42:21;8.98;;;5.88;;
60502;SDS011;51448;51.660;5.824;2023-07-24T14:44:49;8.40;;;5.32;;
60502;SDS011;51448;51.660;5.824;2023-07-24T14:47:16;9.32;;;5.47;;
60502;SDS011;51448;51.660;5.824;2023-07-24T14:49:44;8.40;;;5.35;;
60502;SDS011;51448;51.660;5.824;2023-07-24T14:52:12;8.00;;;5.28;;
60502;SDS011;51448;51.660;5.824;2023-07-24T14:54:39;11.18;;;5.78;;
60502;SDS011;51448;51.660;5.824;2023-07-24T14:57:07;9.98;;;5.60;;
60502;SDS011;51448;51.660;5.824;2023-07-24T14:59:52;7.38;;;5.30;;
60502;SDS011;51448;51.660;5.824;2023-07-24T15:02:20;6.53;;;4.40;;
60502;SDS011;51448;51.660;5.824;2023-07-24T15:04:47;6.57;;;4.05;;
60502;SDS011;51448;51.660;5.824;2023-07-24T15:07:15;6.32;;;4.15;;